createdAt,value
2018-10-15T00:02:53.272Z,4.30
2018-10-15T00:07:37.021Z,4.20
2018-10-15T00:12:20.819Z,4.40
2018-10-15T00:17:05.553Z,4.50
2018-10-15T00:21:49.339Z,4.33
2018-10-15T00:26:33.012Z,4.23
2018-10-15T00:31:16.822Z,4.00
2018-10-15T00:36:00.602Z,4.73
2018-10-15T00:40:44.488Z,5.03
2018-10-15T00:45:28.242Z,4.83
2018-10-15T00:50:14.102Z,4.07
2018-10-15T00:54:58.016Z,3.93
2018-10-15T00:59:41.715Z,4.53
2018-10-15T01:04:25.642Z,3.90
2018-10-15T01:09:09.345Z,4.63
2018-10-15T01:13:53.383Z,4.50
2018-10-15T01:18:37.334Z,4.43
2018-10-15T01:23:21.015Z,4.40
2018-10-15T01:28:04.903Z,4.33
2018-10-15T01:32:48.595Z,4.80
2018-10-15T01:37:32.325Z,4.93
2018-10-15T01:42:16.130Z,4.23
2018-10-15T01:47:00.061Z,4.63
2018-10-15T01:51:43.954Z,4.47
2018-10-15T01:56:27.920Z,4.53
2018-10-15T02:01:11.631Z,4.83
2018-10-15T02:05:55.393Z,4.97
2018-10-15T02:10:39.473Z,4.23
2018-10-15T02:15:23.326Z,5.20
2018-10-15T02:20:08.615Z,4.57
2018-10-15T02:24:52.427Z,4.23
2018-10-15T02:29:36.897Z,4.60
2018-10-15T02:34:20.675Z,4.97
2018-10-15T02:39:06.520Z,4.70
2018-10-15T02:43:50.316Z,4.47
2018-10-15T02:48:34.135Z,4.40
2018-10-15T02:53:18.047Z,4.60
2018-10-15T02:58:01.887Z,4.10
2018-10-15T03:02:46.715Z,4.70
2018-10-15T03:07:30.537Z,4.33
2018-10-15T03:12:14.272Z,4.40
2018-10-15T03:16:58.223Z,3.73
2018-10-15T03:21:42.132Z,4.70
2018-10-15T03:26:26.135Z,3.83
2018-10-15T03:31:09.955Z,4.67
2018-10-15T03:35:53.881Z,4.77
2018-10-15T03:40:37.549Z,4.73
2018-10-15T03:45:21.420Z,4.60
2018-10-15T03:50:05.499Z,4.80
2018-10-15T03:54:49.402Z,4.23
2018-10-15T03:59:33.266Z,4.10
2018-10-15T04:04:17.074Z,4.30
2018-10-15T04:09:00.956Z,4.60
2018-10-15T04:13:45.390Z,4.80
2018-10-15T04:18:29.213Z,4.83
2018-10-15T04:23:13.180Z,4.57
2018-10-15T04:27:56.982Z,4.43
2018-10-15T04:32:40.853Z,4.87
2018-10-15T04:37:24.584Z,4.50
2018-10-15T04:42:08.505Z,4.47
2018-10-15T04:46:52.238Z,4.40
2018-10-15T04:51:36.319Z,4.80
2018-10-15T04:56:21.481Z,4.67
2018-10-15T05:01:06.009Z,4.70
2018-10-15T05:05:49.900Z,4.50
2018-10-15T05:10:33.806Z,4.90
2018-10-15T05:15:17.608Z,4.23
2018-10-15T05:20:01.515Z,3.97
2018-10-15T05:24:45.298Z,4.50
2018-10-15T05:29:29.193Z,4.33
2018-10-15T05:34:12.916Z,5.23
2018-10-15T05:38:56.708Z,5.03
2018-10-15T05:43:40.518Z,5.43
2018-10-15T05:48:24.352Z,4.53
2018-10-15T05:53:08.234Z,5.03
2018-10-15T05:57:52.167Z,4.53
2018-10-15T06:02:36.038Z,5.00
2018-10-15T06:07:19.966Z,5.27
2018-10-15T06:12:03.680Z,6.20
2018-10-15T06:16:47.680Z,4.67
2018-10-15T06:21:31.616Z,5.63
2018-10-15T06:26:16.244Z,5.47
2018-10-15T06:31:00.250Z,5.00
2018-10-15T06:35:44.672Z,4.73
2018-10-15T06:40:30.047Z,4.70
2018-10-15T06:45:14.374Z,4.83
2018-10-15T06:49:58.181Z,5.43
2018-10-15T06:54:42.095Z,5.40
2018-10-15T06:59:25.796Z,5.17
2018-10-15T07:04:09.641Z,5.33
2018-10-15T07:08:53.696Z,5.67
2018-10-15T07:13:37.473Z,5.90
2018-10-15T07:18:21.417Z,6.10
2018-10-15T07:23:05.492Z,5.53
2018-10-15T07:27:49.450Z,5.93
2018-10-15T07:32:33.563Z,5.97
2018-10-15T07:37:17.332Z,5.93
2018-10-15T07:42:01.171Z,6.90
2018-10-15T07:46:45.178Z,5.53
2018-10-15T07:51:29.012Z,5.60
2018-10-15T07:56:13.030Z,6.10
2018-10-15T08:00:57.032Z,5.70
2018-10-15T08:05:40.983Z,6.17
2018-10-15T08:10:24.922Z,5.93
2018-10-15T08:15:10.063Z,5.93
2018-10-15T08:19:53.875Z,6.33
2018-10-15T08:24:37.696Z,6.53
2018-10-15T08:29:21.685Z,6.53
2018-10-15T08:34:06.815Z,6.63
2018-10-15T08:38:50.760Z,6.40
2018-10-15T08:43:34.706Z,6.20
2018-10-15T08:48:18.704Z,6.20
2018-10-15T08:53:02.552Z,6.47
2018-10-15T08:57:46.740Z,5.90
2018-10-15T09:02:30.548Z,6.77
2018-10-15T09:07:14.428Z,6.00
2018-10-15T09:11:58.296Z,7.53
2018-10-15T09:16:42.135Z,6.50
2018-10-15T09:21:26.191Z,6.67
2018-10-15T09:26:10.171Z,6.67
2018-10-15T09:30:54.960Z,6.60
2018-10-15T09:35:39.426Z,6.43
2018-10-15T09:40:24.368Z,6.90
2018-10-15T09:45:11.602Z,6.90
2018-10-15T09:49:56.562Z,6.43
2018-10-15T09:54:40.636Z,6.37
2018-10-15T09:59:24.780Z,6.73
2018-10-15T10:04:09.474Z,6.80
2018-10-15T10:08:55.616Z,7.50
2018-10-15T10:13:40.854Z,8.07
2018-10-15T10:18:24.969Z,7.17
2018-10-15T10:23:08.914Z,8.10
2018-10-15T10:27:55.625Z,7.60
2018-10-15T10:32:39.601Z,7.00
2018-10-15T10:37:28.136Z,7.07
2018-10-15T10:42:12.159Z,6.90
2018-10-15T10:46:55.874Z,7.00
2018-10-15T10:51:39.507Z,6.40
2018-10-15T10:56:23.307Z,7.20
2018-10-15T11:01:07.460Z,6.83
2018-10-15T11:05:53.998Z,6.77
2018-10-15T11:10:37.730Z,7.67
2018-10-15T11:15:21.522Z,7.90
2018-10-15T11:20:06.170Z,7.57
2018-10-15T11:24:49.980Z,7.77
2018-10-15T11:29:33.908Z,7.87
2018-10-15T11:34:17.733Z,7.30
2018-10-15T11:39:01.382Z,7.70
2018-10-15T11:43:45.197Z,8.43
2018-10-15T11:48:29.229Z,8.13
2018-10-15T11:53:12.961Z,7.93
2018-10-15T11:57:56.976Z,7.90
2018-10-15T12:02:41.452Z,7.27
2018-10-15T12:07:27.259Z,7.03
2018-10-15T12:12:11.290Z,7.40
2018-10-15T12:17:00.436Z,6.30
2018-10-15T12:21:44.374Z,7.17
2018-10-15T12:26:29.385Z,6.57
2018-10-15T12:31:13.528Z,6.47
2018-10-15T12:35:57.675Z,6.87
2018-10-15T12:40:41.871Z,7.40
2018-10-15T12:45:59.119Z,6.63
2018-10-15T12:50:43.106Z,7.03
2018-10-15T12:55:27.250Z,6.77
2018-10-15T13:00:11.173Z,7.30
2018-10-15T13:05:06.309Z,7.10
2018-10-15T13:09:50.197Z,7.47
2018-10-15T13:14:34.091Z,7.73
2018-10-15T13:19:18.182Z,7.33
2018-10-15T13:24:02.424Z,6.80
2018-10-15T13:28:46.796Z,7.03
2018-10-15T13:33:31.549Z,7.37
2018-10-15T13:38:15.604Z,6.93
2018-10-15T13:42:59.733Z,7.07
2018-10-15T13:47:43.921Z,7.43
2018-10-15T13:52:28.062Z,7.57
2018-10-15T13:57:12.046Z,7.20
2018-10-15T14:01:56.007Z,7.30
2018-10-15T14:06:40.561Z,7.23
2018-10-15T14:11:24.575Z,8.00
2018-10-15T14:16:08.792Z,7.33
2018-10-15T14:20:53.655Z,7.73
2018-10-15T14:25:38.495Z,7.80
2018-10-15T14:30:26.722Z,6.90
2018-10-15T14:35:11.476Z,6.57
2018-10-15T14:39:55.395Z,7.10
2018-10-15T14:44:39.418Z,7.33
2018-10-15T14:49:23.411Z,7.30
2018-10-15T14:54:07.610Z,7.13
2018-10-15T14:58:51.865Z,7.23
2018-10-15T15:03:36.164Z,7.67
2018-10-15T15:08:20.177Z,7.60
2018-10-15T15:13:15.095Z,7.07
2018-10-15T15:17:59.125Z,6.77
2018-10-15T15:22:43.233Z,7.60
2018-10-15T15:27:27.338Z,6.87
2018-10-15T15:32:11.704Z,7.47
2018-10-15T15:36:55.915Z,7.23
2018-10-15T15:41:39.950Z,6.53
2018-10-15T15:46:24.510Z,6.73
2018-10-15T15:51:08.621Z,6.10
2018-10-15T15:55:52.537Z,7.37
2018-10-15T16:00:36.519Z,6.70
2018-10-15T16:05:20.421Z,6.67
2018-10-15T16:10:04.407Z,6.90
2018-10-15T16:14:48.359Z,6.50
2018-10-15T16:19:32.515Z,6.13
2018-10-15T16:24:16.916Z,6.30
2018-10-15T16:29:02.211Z,6.60
2018-10-15T16:33:46.665Z,6.67
2018-10-15T16:38:30.924Z,6.07
2018-10-15T16:43:14.902Z,6.53
2018-10-15T16:47:59.234Z,6.50
2018-10-15T16:52:43.576Z,6.63
2018-10-15T16:57:28.017Z,6.60
2018-10-15T17:02:12.463Z,7.17
2018-10-15T17:06:57.621Z,6.20
2018-10-15T17:11:42.115Z,6.37
2018-10-15T17:16:27.689Z,6.33
2018-10-15T17:21:11.977Z,6.03
2018-10-15T17:25:56.657Z,6.33
2018-10-15T17:30:41.478Z,6.97
2018-10-15T17:35:25.767Z,6.50
2018-10-15T17:40:11.384Z,6.33
2018-10-15T17:44:56.608Z,6.70
2018-10-15T17:49:41.188Z,6.77
2018-10-15T17:54:25.170Z,6.67
2018-10-15T17:59:09.439Z,6.10
2018-10-15T18:03:53.606Z,6.33
2018-10-15T18:08:37.847Z,6.27
2018-10-15T18:13:23.029Z,5.90
2018-10-15T18:18:07.099Z,5.40
2018-10-15T18:22:51.304Z,6.77
2018-10-15T18:27:35.920Z,5.83
2018-10-15T18:32:20.199Z,5.50
2018-10-15T18:41:59.839Z,5.87
2018-10-15T18:46:48.150Z,5.90
2018-10-15T18:51:32.290Z,7.08
2018-10-15T18:56:20.845Z,6.42
2018-10-15T19:01:06.445Z,5.77
2018-10-15T19:05:50.504Z,6.62
2018-10-15T19:10:34.640Z,5.90
2018-10-15T19:15:22.712Z,5.97
2018-10-15T19:20:07.138Z,6.17
2018-10-15T19:24:51.114Z,5.70
2018-10-15T19:29:34.960Z,6.03
2018-10-15T19:34:18.777Z,5.23
2018-10-15T19:39:02.612Z,6.00
2018-10-15T19:43:46.619Z,5.37
2018-10-15T19:48:30.569Z,5.57
2018-10-15T19:53:14.362Z,6.40
2018-10-15T19:57:58.241Z,5.40
2018-10-15T20:02:42.537Z,6.03
2018-10-15T20:07:26.536Z,5.30
2018-10-15T20:12:10.653Z,6.50
2018-10-15T20:16:54.575Z,6.53
2018-10-15T20:21:38.541Z,5.77
2018-10-15T20:26:23.241Z,5.83
2018-10-15T20:31:07.107Z,6.30
2018-10-15T20:35:51.066Z,6.03
2018-10-15T20:40:34.735Z,5.70
2018-10-15T20:45:18.672Z,6.13
2018-10-15T20:50:02.645Z,6.33
2018-10-15T20:54:46.646Z,6.10
2018-10-15T20:59:30.305Z,6.33
2018-10-15T21:04:14.972Z,5.90
2018-10-15T21:08:58.706Z,6.43
2018-10-15T21:13:43.149Z,6.40
2018-10-15T21:18:26.865Z,6.37
2018-10-15T21:23:10.807Z,6.33
2018-10-15T21:27:54.629Z,6.07
2018-10-15T21:32:39.228Z,6.53
2018-10-15T21:37:23.230Z,7.03
2018-10-15T21:42:07.152Z,6.43
2018-10-15T21:46:50.945Z,7.90
2018-10-15T21:51:34.831Z,6.63
2018-10-15T21:56:18.739Z,6.80
2018-10-15T22:01:02.593Z,6.50
2018-10-15T22:05:46.615Z,7.37
2018-10-15T22:10:31.943Z,7.30
2018-10-15T22:15:15.834Z,7.40
2018-10-15T22:19:59.723Z,6.80
2018-10-15T22:24:43.541Z,6.70
2018-10-15T22:29:27.987Z,6.63
2018-10-15T22:34:11.844Z,6.73
2018-10-15T22:38:55.713Z,6.57
2018-10-15T22:43:39.479Z,6.97
2018-10-15T22:48:23.175Z,6.70
2018-10-15T22:53:07.075Z,6.77
2018-10-15T22:57:50.971Z,6.37
2018-10-15T23:02:34.864Z,7.30
2018-10-15T23:07:18.685Z,7.90
2018-10-15T23:12:03.301Z,7.23
2018-10-15T23:16:47.452Z,6.37
2018-10-15T23:21:31.265Z,6.57
2018-10-15T23:26:15.084Z,6.83
2018-10-15T23:31:04.134Z,7.20
2018-10-15T23:35:48.014Z,6.90
2018-10-15T23:40:31.917Z,7.27
2018-10-15T23:45:15.863Z,6.53
2018-10-15T23:49:59.723Z,6.83
2018-10-15T23:54:43.697Z,6.57
2018-10-15T23:59:27.510Z,7.03
